createdAt,value
2022-11-03T00:00:38.515Z,88.6
2022-11-03T00:01:54.803Z,88.6
2022-11-03T00:03:11.098Z,88.7
2022-11-03T00:04:27.395Z,88.8
2022-11-03T00:05:43.685Z,88.8
2022-11-03T00:06:59.991Z,88.9
2022-11-03T00:08:16.281Z,88.9
2022-11-03T00:09:32.573Z,89.1
2022-11-03T00:10:48.857Z,89
2022-11-03T00:12:05.171Z,89.2
2022-11-03T00:13:21.442Z,89.2
2022-11-03T00:14:37.740Z,89.6
2022-11-03T00:15:53.049Z,89.4
2022-11-03T00:17:09.354Z,89.3
2022-11-03T00:18:25.649Z,89.5
2022-11-03T00:19:41.937Z,89.3
2022-11-03T00:20:58.227Z,89.5
2022-11-03T00:22:13.541Z,89.8
2022-11-03T00:23:29.834Z,89.8
2022-11-03T00:24:45.154Z,90
2022-11-03T00:26:00.471Z,90.2
2022-11-03T00:27:16.752Z,90
2022-11-03T00:28:33.058Z,90.3
2022-11-03T00:29:49.338Z,90.5
2022-11-03T00:31:05.639Z,90.4
2022-11-03T00:32:21.936Z,90.3
2022-11-03T00:33:38.217Z,90.2
2022-11-03T00:34:54.517Z,89.8
2022-11-03T00:36:10.822Z,89.8
2022-11-03T00:37:27.108Z,89.8
2022-11-03T00:38:43.400Z,90
2022-11-03T00:39:59.695Z,89.9
2022-11-03T00:41:15.984Z,90
2022-11-03T00:42:31.307Z,90
2022-11-03T00:43:47.605Z,90.5
2022-11-03T00:45:03.888Z,90.4
2022-11-03T00:46:20.193Z,90.2
2022-11-03T00:47:36.487Z,90
2022-11-03T00:48:52.772Z,90.3
2022-11-03T00:50:09.058Z,90.4
2022-11-03T00:51:24.375Z,90.6
2022-11-03T00:52:39.686Z,90.4
2022-11-03T00:53:55.005Z,90.4
2022-11-03T00:55:10.315Z,90.7
2022-11-03T00:56:25.623Z,90.9
2022-11-03T00:57:40.945Z,91.2
2022-11-03T00:58:56.270Z,91
2022-11-03T01:00:11.561Z,90.7
2022-11-03T01:01:27.869Z,90.6
2022-11-03T01:02:44.162Z,90.7
2022-11-03T01:04:00.453Z,90.8
2022-11-03T01:05:16.739Z,90.7
2022-11-03T01:06:33.034Z,90.7
2022-11-03T01:07:49.336Z,90.8
2022-11-03T01:09:05.619Z,90.8
2022-11-03T01:10:21.912Z,91.3
2022-11-03T01:11:38.202Z,91.2
2022-11-03T01:12:54.495Z,91.2
2022-11-03T01:14:10.788Z,91.1
2022-11-03T01:15:27.080Z,91.1
2022-11-03T01:16:42.398Z,91
2022-11-03T01:17:58.690Z,91
2022-11-03T01:19:14.978Z,90.9
2022-11-03T01:20:31.288Z,90.8
2022-11-03T01:21:47.566Z,90.8
2022-11-03T01:23:03.877Z,90.9
2022-11-03T01:24:20.163Z,91
2022-11-03T01:25:35.467Z,91.1
2022-11-03T01:26:50.795Z,90.8
2022-11-03T01:28:07.073Z,90.5
2022-11-03T01:29:23.000Z,90.6
2022-11-03T01:30:39.663Z,90.5
2022-11-03T01:31:55.956Z,90.4
2022-11-03T01:33:12.249Z,90.5
2022-11-03T01:34:28.536Z,90.6
2022-11-03T01:35:44.851Z,90.7
2022-11-03T01:37:01.117Z,90.6
2022-11-03T01:38:17.414Z,90.6
2022-11-03T01:39:33.720Z,90.3
2022-11-03T01:40:50.013Z,90.1
2022-11-03T01:42:06.306Z,89.8
2022-11-03T01:43:21.607Z,89.8
2022-11-03T01:44:37.925Z,89.7
2022-11-03T01:45:54.223Z,89.7
2022-11-03T01:47:10.489Z,89.7
2022-11-03T01:48:26.792Z,89.7
2022-11-03T01:49:43.079Z,89.8
2022-11-03T01:50:59.386Z,89.7
2022-11-03T01:52:14.704Z,89.9
2022-11-03T01:53:29.995Z,89.8
2022-11-03T01:54:46.292Z,89.5
2022-11-03T01:56:02.607Z,89.3
2022-11-03T01:57:18.877Z,89.3
2022-11-03T01:58:35.189Z,89.3
2022-11-03T01:59:51.463Z,89.3
2022-11-03T02:01:07.784Z,89.3
2022-11-03T02:02:24.067Z,89.3
2022-11-03T02:03:40.364Z,89.3
2022-11-03T02:04:56.671Z,89.5
2022-11-03T02:06:12.955Z,89.6
2022-11-03T02:07:29.254Z,89.5
2022-11-03T02:08:45.538Z,89.3
2022-11-03T02:10:00.847Z,89.3
2022-11-03T02:11:17.143Z,89.5
2022-11-03T02:12:33.428Z,89.2
2022-11-03T02:13:49.740Z,89.1
2022-11-03T02:15:06.031Z,89.3
2022-11-03T02:16:22.321Z,89.6
2022-11-03T02:17:38.603Z,89.5
2022-11-03T02:18:53.924Z,89.7
2022-11-03T02:20:09.230Z,89.6
2022-11-03T02:21:24.551Z,89.7
2022-11-03T02:22:39.862Z,89.7
2022-11-03T02:23:55.179Z,89.8
2022-11-03T02:25:10.481Z,89.8
2022-11-03T02:26:26.791Z,89.8
2022-11-03T02:27:43.074Z,89.8
2022-11-03T02:28:59.368Z,90
2022-11-03T02:30:15.660Z,90.1
2022-11-03T02:31:31.958Z,89.9
2022-11-03T02:32:48.258Z,89.9
2022-11-03T02:34:04.559Z,90.1
2022-11-03T02:35:20.837Z,90.3
2022-11-03T02:36:37.126Z,90.3
2022-11-03T02:37:53.432Z,90.5
2022-11-03T02:39:09.729Z,90.5
2022-11-03T02:40:26.018Z,90.5
2022-11-03T02:41:41.317Z,90.6
2022-11-03T02:42:57.631Z,90.6
2022-11-03T02:44:13.907Z,90.8
2022-11-03T02:45:30.202Z,90.8
2022-11-03T02:46:46.499Z,90.9
2022-11-03T02:48:02.797Z,90.9
2022-11-03T02:49:19.000Z,90.9
2022-11-03T02:50:34.397Z,90.8
2022-11-03T02:51:49.725Z,90.9
2022-11-03T02:53:05.029Z,91
2022-11-03T02:54:20.342Z,91.1
2022-11-03T02:55:36.636Z,91.4
2022-11-03T02:56:52.927Z,91.4
2022-11-03T02:58:09.220Z,91.3
2022-11-03T02:59:25.515Z,91.3
2022-11-03T03:04:30.700Z,91.3
2022-11-03T03:05:46.978Z,91.5
2022-11-03T03:21:02.498Z,91.7
2022-11-03T03:22:17.824Z,91.7
2022-11-03T03:23:34.106Z,91.7
2022-11-03T03:24:49.422Z,91.8
2022-11-03T03:26:04.737Z,91.8
2022-11-03T03:27:21.018Z,91.9
2022-11-03T03:28:37.321Z,91.7
2022-11-03T03:31:09.905Z,91.9
2022-11-03T03:32:26.217Z,91.8
2022-11-03T03:34:58.806Z,91.6
2022-11-03T03:45:09.145Z,91.3
2022-11-03T03:46:24.439Z,91
2022-11-03T03:47:40.733Z,91
2022-11-03T03:48:57.026Z,90.9
2022-11-03T03:50:13.335Z,90.9
2022-11-03T03:51:29.635Z,90.9
2022-11-03T03:52:45.916Z,90.9
2022-11-03T03:54:02.200Z,90.9
2022-11-03T03:59:07.397Z,91.4
2022-11-03T04:00:23.689Z,91.3
2022-11-03T04:01:39.967Z,91.2
2022-11-03T04:02:55.282Z,91
2022-11-03T04:04:11.596Z,91.1
2022-11-03T04:05:27.879Z,91
2022-11-03T04:06:43.182Z,90.8
2022-11-03T04:07:58.496Z,91.1
2022-11-03T04:09:14.788Z,91.2
2022-11-03T04:10:31.087Z,91.4
2022-11-03T04:11:47.370Z,91.4
2022-11-03T04:13:03.674Z,91.3
2022-11-03T05:38:21.645Z,88.7
2022-11-03T05:42:11.499Z,88.2
2022-11-03T05:51:13.638Z,87.9
2022-11-03T05:56:48.809Z,88
2022-11-03T06:14:56.800Z,87.7
2022-11-03T06:17:56.148Z,87.8
2022-11-03T06:19:11.489Z,87.7
2022-11-03T06:20:26.797Z,87.5
2022-11-03T06:21:42.062Z,87.7
2022-11-03T06:22:58.305Z,87.6
2022-11-03T06:24:14.538Z,87.6
2022-11-03T06:25:30.772Z,87.2
2022-11-03T06:26:47.028Z,87.1
2022-11-03T06:28:03.260Z,87.2
2022-11-03T06:29:19.494Z,86.9
2022-11-03T06:30:35.735Z,87.2
2022-11-03T06:31:51.979Z,86.8
2022-11-03T06:33:08.213Z,86.4
2022-11-03T06:34:23.473Z,86.4
2022-11-03T06:35:38.731Z,86.5
2022-11-03T06:36:54.973Z,86.5
2022-11-03T06:38:11.222Z,86.6
2022-11-03T06:39:27.452Z,86.4
2022-11-03T06:40:43.692Z,86.5
2022-11-03T06:41:59.938Z,86.5
2022-11-03T06:43:16.186Z,86.7
2022-11-03T06:44:32.425Z,87
2022-11-03T06:45:48.655Z,86.9
2022-11-03T06:47:04.895Z,86.7
2022-11-03T06:48:20.151Z,86.6
2022-11-03T06:49:35.413Z,86.8
2022-11-03T06:50:51.643Z,86.9
2022-11-03T06:52:07.901Z,87.1
2022-11-03T06:53:24.125Z,87.2
2022-11-03T06:54:40.365Z,86.8
2022-11-03T06:55:56.606Z,86.8
2022-11-03T06:57:12.848Z,87
2022-11-03T06:58:29.085Z,87
2022-11-03T06:59:45.324Z,87.1
2022-11-03T07:01:01.566Z,86.6
2022-11-03T07:02:17.803Z,86.6
2022-11-03T07:03:34.044Z,86.5
2022-11-03T07:04:50.286Z,86.6
2022-11-03T07:06:05.547Z,86.5
2022-11-03T07:07:21.791Z,86.7
2022-11-03T07:08:38.024Z,86
2022-11-03T07:09:54.273Z,86
2022-11-03T07:11:10.504Z,85.6
2022-11-03T07:12:26.734Z,85.4
2022-11-03T07:13:42.988Z,85.3
2022-11-03T07:14:58.240Z,85.1
2022-11-03T07:16:13.500Z,84.9
2022-11-03T07:17:28.755Z,84.8
2022-11-03T07:18:44.017Z,84.8
2022-11-03T07:20:00.269Z,84.7
2022-11-03T07:21:16.502Z,84.6
2022-11-03T07:22:32.746Z,84.2
2022-11-03T07:23:48.978Z,84.5
2022-11-03T07:25:05.220Z,84.5
2022-11-03T07:26:21.468Z,84.8
2022-11-03T07:32:42.656Z,84.1
2022-11-03T08:12:06.461Z,79.5
2022-11-03T08:13:21.766Z,79.5
2022-11-03T08:14:37.037Z,79.4
2022-11-03T08:15:53.267Z,79.4
2022-11-03T08:17:09.502Z,79.2
2022-11-03T08:18:25.748Z,78.8
2022-11-03T08:19:41.993Z,79
2022-11-03T08:20:58.220Z,78.1
2022-11-03T08:22:14.476Z,77.8
2022-11-03T08:23:30.700Z,77.6
2022-11-03T08:24:46.948Z,77.2
2022-11-03T08:26:03.178Z,76.8
2022-11-03T08:27:19.422Z,76.6
2022-11-03T08:28:35.662Z,76.5
2022-11-03T08:29:51.903Z,76.3
2022-11-03T08:31:07.159Z,76.1
2022-11-03T08:32:23.399Z,75.8
2022-11-03T08:33:39.642Z,75.5
2022-11-03T08:34:55.882Z,75.2
2022-11-03T08:36:12.116Z,75
2022-11-03T08:37:28.358Z,74.7
2022-11-03T08:38:44.598Z,74.4
2022-11-03T08:39:59.858Z,74.3
2022-11-03T08:41:15.113Z,74
2022-11-03T08:42:31.356Z,73.8
2022-11-03T08:43:47.598Z,73.5
2022-11-03T08:45:03.838Z,73.1
2022-11-03T10:45:08.867Z,60.1
2022-11-03T10:54:11.919Z,59.2
2022-11-03T11:03:14.993Z,60.5
2022-11-03T11:12:18.086Z,60.4
2022-11-03T11:20:48.385Z,60.1
2022-11-03T11:38:54.525Z,60
2022-11-03T11:48:30.372Z,59.9
2022-11-03T12:06:03.737Z,59.4
2022-11-03T12:24:42.658Z,60
2022-11-03T12:42:48.818Z,60.6
2022-11-03T12:45:49.824Z,60
2022-11-03T12:48:51.019Z,58
2022-11-03T12:52:08.275Z,57.9
2022-11-03T12:55:09.270Z,57.3
2022-11-03T12:58:10.298Z,58.7
2022-11-03T13:01:11.350Z,57.4
2022-11-03T13:07:13.387Z,56.8
2022-11-03T13:10:14.392Z,58.3
2022-11-03T13:11:41.090Z,58.2
2022-11-03T13:13:15.420Z,58.6
2022-11-03T13:19:17.481Z,58.3
2022-11-03T13:25:19.528Z,59.1
2022-11-03T13:28:20.550Z,59.5
2022-11-03T13:34:22.572Z,60.8
2022-11-03T13:37:23.618Z,60.9
2022-11-03T13:40:24.631Z,60.9
2022-11-03T13:41:51.325Z,61.2
2022-11-03T13:43:25.646Z,61.4
2022-11-03T13:46:26.679Z,61.6
2022-11-03T13:49:27.690Z,61.6
2022-11-03T13:52:28.726Z,61.5
2022-11-03T13:55:29.762Z,62
2022-11-03T13:58:29.918Z,62
2022-11-03T14:00:08.551Z,62.1
2022-11-03T14:01:39.067Z,62.1
2022-11-03T14:03:09.576Z,62.3
2022-11-03T14:04:40.080Z,62.6
2022-11-03T14:06:10.594Z,62.7
2022-11-03T14:07:41.109Z,63.3
2022-11-03T14:09:11.622Z,63.3
2022-11-03T14:10:42.146Z,63.2
2022-11-03T14:12:00.654Z,63.2
2022-11-03T14:13:17.719Z,63.3
2022-11-03T14:14:48.327Z,63.4
2022-11-03T14:16:26.953Z,63.6
2022-11-03T14:17:57.465Z,63.7
2022-11-03T14:19:27.974Z,63.8
2022-11-03T14:20:58.483Z,64.1
2022-11-03T14:22:28.995Z,64.2
2022-11-03T14:23:59.513Z,64.2
2022-11-03T14:25:30.024Z,64.5
2022-11-03T14:28:17.591Z,64.2
2022-11-03T14:29:34.679Z,64.2
2022-11-03T14:31:05.206Z,64.4
2022-11-03T14:32:35.705Z,64.8
2022-11-03T14:34:06.205Z,64.8
2022-11-03T14:35:36.740Z,64.2
2022-11-03T14:37:07.239Z,64.3
2022-11-03T14:38:37.736Z,64.1
2022-11-03T14:40:08.250Z,64.2
2022-11-03T14:41:38.773Z,64.9
2022-11-03T14:43:09.274Z,64.7
2022-11-03T14:45:43.440Z,65.6
2022-11-03T14:47:13.956Z,65.8
2022-11-03T14:48:43.998Z,65.7
2022-11-03T14:49:59.900Z,65.6
2022-11-03T14:51:16.515Z,65.8
2022-11-03T14:52:33.145Z,66.1
2022-11-03T14:53:49.768Z,65.7
2022-11-03T14:55:06.372Z,65.5
2022-11-03T14:56:23.001Z,65.3
2022-11-03T14:57:39.619Z,65.5
2022-11-03T14:58:56.243Z,65.5
2022-11-03T15:01:29.480Z,64.8
2022-11-03T15:02:46.095Z,64.5
2022-11-03T15:04:02.721Z,64.7
2022-11-03T15:05:19.352Z,64.5
2022-11-03T15:06:35.238Z,64.5
2022-11-03T15:07:51.857Z,64.5
2022-11-03T15:10:25.108Z,64.7
2022-11-03T15:11:41.856Z,64.8
2022-11-03T15:12:57.760Z,64.9
2022-11-03T15:14:14.372Z,64.9
2022-11-03T15:15:31.002Z,65.1
2022-11-03T15:16:47.616Z,65.2
2022-11-03T15:18:04.224Z,65.6
2022-11-03T15:19:20.850Z,65.9
2022-11-03T15:20:37.483Z,66.1
2022-11-03T15:21:54.090Z,66.5
2022-11-03T15:23:10.718Z,66.6
2022-11-03T15:24:27.344Z,66.7
2022-11-03T15:25:43.262Z,66.9
2022-11-03T15:26:59.881Z,66.8
2022-11-03T15:28:16.508Z,67.2
2022-11-03T15:29:33.251Z,67.4
2022-11-03T15:30:49.871Z,67.5
2022-11-03T15:32:06.497Z,67.7
2022-11-03T15:33:23.110Z,67.8
2022-11-03T15:34:39.733Z,68.2
2022-11-03T15:35:56.351Z,68.4
2022-11-03T15:37:12.969Z,68.7
2022-11-03T15:38:29.605Z,68.7
2022-11-03T15:39:45.531Z,68.7
2022-11-03T15:41:01.428Z,69
2022-11-03T15:42:18.035Z,69.3
2022-11-03T15:43:34.653Z,69.4
2022-11-03T15:44:51.277Z,69.6
2022-11-03T15:46:07.905Z,69.6
2022-11-03T15:47:24.531Z,69.9
2022-11-03T15:48:41.154Z,70
2022-11-03T15:49:57.769Z,70.2
2022-11-03T15:51:14.382Z,70.3
2022-11-03T15:52:31.004Z,70.3
2022-11-03T15:53:47.618Z,70.4
2022-11-03T15:55:04.244Z,70.4
2022-11-03T15:56:20.873Z,70.6
2022-11-03T15:57:36.759Z,70.8
2022-11-03T15:58:53.376Z,70.9
2022-11-03T16:00:09.995Z,71
2022-11-03T16:01:26.623Z,71.3
2022-11-03T16:02:43.251Z,71.7
2022-11-03T16:03:59.870Z,71.8
2022-11-03T16:05:16.483Z,71.7
2022-11-03T16:06:33.106Z,71.8
2022-11-03T16:09:06.351Z,71.9
2022-11-03T16:10:22.974Z,72.1
2022-11-03T16:11:39.654Z,72.2
2022-11-03T16:14:12.994Z,72.4
2022-11-03T16:15:29.663Z,72.5
2022-11-03T16:18:03.152Z,72.6
2022-11-03T16:19:19.132Z,72.6
2022-11-03T16:20:35.064Z,72.5
2022-11-03T16:21:51.738Z,72.6
2022-11-03T16:23:08.420Z,72.7
2022-11-03T16:24:25.106Z,72.8
2022-11-03T16:25:41.779Z,72.9
2022-11-03T16:26:58.449Z,73
2022-11-03T16:28:15.127Z,73.2
2022-11-03T16:29:31.785Z,73.3
2022-11-03T16:30:48.465Z,73.2
2022-11-03T16:32:05.141Z,73.3
2022-11-03T16:33:21.130Z,73.3
2022-11-03T16:35:54.485Z,73.5
2022-11-03T16:39:43.783Z,73.6
2022-11-03T16:41:00.450Z,73.7
2022-11-03T16:42:17.117Z,73.6
2022-11-03T16:44:50.465Z,73.5
2022-11-03T16:46:07.158Z,73.4
2022-11-03T16:47:23.839Z,73.3
2022-11-03T16:48:39.443Z,73.4
2022-11-03T16:49:55.856Z,73.5
2022-11-03T16:51:12.137Z,73.5
2022-11-03T16:52:28.436Z,73.6
2022-11-03T16:53:44.727Z,73.5
2022-11-03T16:55:01.028Z,73.3
2022-11-03T16:56:17.314Z,73.4
2022-11-03T16:57:33.621Z,73.4
2022-11-03T16:58:49.914Z,73.5
2022-11-03T17:00:06.197Z,73.6
2022-11-03T17:01:22.496Z,73.7
2022-11-03T17:02:38.778Z,73.8
2022-11-03T17:03:55.082Z,73.8
2022-11-03T17:05:11.381Z,73.9
2022-11-03T17:06:26.688Z,73.9
2022-11-03T17:07:42.976Z,73.7
2022-11-03T17:08:59.263Z,73.6
2022-11-03T17:10:15.574Z,73.6
2022-11-03T17:11:31.865Z,73.8
2022-11-03T17:12:48.145Z,73.6
2022-11-03T17:14:04.442Z,73.8
2022-11-03T17:15:19.755Z,73.7
2022-11-03T17:16:35.061Z,73.8
2022-11-03T17:17:51.368Z,74.1
2022-11-03T17:19:07.658Z,74
2022-11-03T17:20:23.949Z,73.8
2022-11-03T17:21:40.226Z,73.8
2022-11-03T17:22:56.530Z,74
2022-11-03T17:24:12.825Z,73.9
2022-11-03T17:25:29.115Z,73.9
2022-11-03T17:26:45.425Z,74
2022-11-03T17:28:01.716Z,74
2022-11-03T17:29:18.015Z,74.2
2022-11-03T17:30:34.293Z,74.3
2022-11-03T17:31:50.594Z,74.3
2022-11-03T17:33:05.903Z,74.2
2022-11-03T17:34:22.202Z,74.2
2022-11-03T17:35:38.493Z,74
2022-11-03T17:36:54.767Z,74.3
2022-11-03T17:38:11.076Z,74.3
2022-11-03T17:39:27.359Z,74.3
2022-11-03T17:40:43.667Z,74.5
2022-11-03T17:41:58.976Z,74.6
2022-11-03T17:43:14.284Z,74.9
2022-11-03T17:44:29.609Z,75.1
2022-11-03T17:45:44.907Z,74.9
2022-11-03T17:47:01.206Z,75
2022-11-03T17:48:17.500Z,74.9
2022-11-03T17:49:32.814Z,75
2022-11-03T17:50:49.108Z,75.1
2022-11-03T17:52:05.398Z,75.3
2022-11-03T17:53:21.695Z,75.4
2022-11-03T17:54:37.989Z,75.5
2022-11-03T17:55:54.278Z,75.6
2022-11-03T17:57:10.577Z,75.7
2022-11-03T17:58:26.873Z,75.9
2022-11-03T17:59:43.166Z,75.6
2022-11-03T18:00:59.456Z,75.5
2022-11-03T18:02:15.756Z,75.5
2022-11-03T18:03:32.051Z,75.6
2022-11-03T18:04:48.343Z,75.7
2022-11-03T18:06:03.642Z,75.8
2022-11-03T18:07:19.944Z,75.9
2022-11-03T18:08:36.247Z,75.8
2022-11-03T18:09:52.539Z,76
2022-11-03T18:11:07.844Z,76.4
2022-11-03T18:12:23.156Z,76.3
2022-11-03T18:13:39.446Z,76
2022-11-03T18:14:55.740Z,76
2022-11-03T18:16:12.044Z,76.1
2022-11-03T18:17:28.326Z,76.2
2022-11-03T18:18:44.623Z,76.2
2022-11-03T18:20:00.913Z,76.3
2022-11-03T18:21:17.204Z,76.5
2022-11-03T18:22:33.496Z,76.5
2022-11-03T18:23:49.788Z,76.4
2022-11-03T18:25:06.087Z,76.3
2022-11-03T18:26:22.374Z,76.2
2022-11-03T18:27:38.676Z,76.2
2022-11-03T18:28:53.979Z,76.2
2022-11-03T18:30:10.271Z,76.4
2022-11-03T18:31:26.568Z,76.5
2022-11-03T18:32:42.871Z,76.6
2022-11-03T18:33:59.155Z,76.6
2022-11-03T18:35:15.445Z,76.7
2022-11-03T18:36:31.752Z,76.7
2022-11-03T18:37:47.066Z,77
2022-11-03T18:39:02.000Z,76.9
2022-11-03T18:40:17.688Z,76.8
2022-11-03T18:41:32.998Z,76.7
2022-11-03T18:42:48.318Z,76.8
2022-11-03T18:44:03.620Z,76.8
2022-11-03T18:45:19.926Z,77
2022-11-03T18:46:36.218Z,77.2
2022-11-03T18:47:52.511Z,77.2
2022-11-03T18:49:08.792Z,77.3
2022-11-03T18:50:25.088Z,77.6
2022-11-03T18:51:41.391Z,77.4
2022-11-03T18:52:57.675Z,77.4
2022-11-03T18:54:13.970Z,77.3
2022-11-03T18:55:30.272Z,77.2
2022-11-03T18:56:46.568Z,77.3
2022-11-03T18:58:02.867Z,77.2
2022-11-03T18:59:19.142Z,77.3
2022-11-03T19:00:34.455Z,77.4
2022-11-03T19:01:50.744Z,77.5
2022-11-03T19:03:07.043Z,77.5
2022-11-03T19:04:23.335Z,77.5
2022-11-03T19:05:39.630Z,77.2
2022-11-03T19:06:55.929Z,77.1
2022-11-03T19:08:12.227Z,77.2
2022-11-03T19:09:27.540Z,77.2
2022-11-03T19:10:42.850Z,77.3
2022-11-03T19:11:58.160Z,77.4
2022-11-03T19:13:13.476Z,77.5
2022-11-03T19:14:28.780Z,77.6
2022-11-03T19:15:44.101Z,77.6
2022-11-03T19:17:00.398Z,78
2022-11-03T19:18:16.680Z,78
2022-11-03T19:19:32.973Z,77.8
2022-11-03T19:20:49.271Z,77.8
2022-11-03T19:22:05.571Z,78.1
2022-11-03T19:23:21.859Z,78.1
2022-11-03T19:24:38.145Z,78.2
2022-11-03T19:25:54.445Z,78.3
2022-11-03T19:27:10.732Z,78.5
2022-11-03T19:28:27.039Z,78.6
2022-11-03T19:29:43.321Z,78.7
2022-11-03T19:30:59.622Z,78.9
2022-11-03T19:32:14.934Z,79
2022-11-03T19:33:31.232Z,78.9
2022-11-03T19:34:47.512Z,78.9
2022-11-03T19:36:03.802Z,78.9
2022-11-03T19:37:20.104Z,78.9
2022-11-03T19:38:36.408Z,79.2
2022-11-03T19:39:52.682Z,79.4
2022-11-03T19:41:08.013Z,79.7
2022-11-03T19:42:23.317Z,79.8
2022-11-03T19:43:38.633Z,80
2022-11-03T19:44:53.954Z,80.2
2022-11-03T19:46:10.228Z,80.4
2022-11-03T19:47:26.527Z,80.5
2022-11-03T19:48:42.830Z,80.5
2022-11-03T19:49:59.112Z,80.5
2022-11-03T19:51:15.414Z,80.7
2022-11-03T19:52:31.705Z,80.7
2022-11-03T19:53:48.000Z,80.7
2022-11-03T19:55:04.295Z,80.9
2022-11-03T19:56:20.576Z,81
2022-11-03T19:57:36.871Z,81.2
2022-11-03T19:58:53.168Z,81.4
2022-11-03T20:00:09.467Z,81.5
2022-11-03T20:01:24.773Z,81.4
2022-11-03T20:02:41.061Z,81.6
2022-11-03T20:03:57.359Z,81.6
2022-11-03T20:05:13.665Z,81.7
2022-11-03T20:06:29.946Z,81.8
2022-11-03T20:07:46.247Z,82
2022-11-03T20:09:02.534Z,82.2
2022-11-03T20:10:17.843Z,82.4
2022-11-03T20:11:33.158Z,82.6
2022-11-03T20:12:48.469Z,82.9
2022-11-03T20:14:03.785Z,82.9
2022-11-03T20:15:20.074Z,82.7
2022-11-03T20:16:36.385Z,82.8
2022-11-03T20:17:52.659Z,82.9
2022-11-03T20:19:08.962Z,83
2022-11-03T20:20:24.266Z,83
2022-11-03T20:21:39.597Z,83.1
2022-11-03T20:22:54.898Z,83.4
2022-11-03T20:24:10.209Z,83.5
2022-11-03T20:25:26.501Z,83.7
2022-11-03T20:26:42.806Z,84
2022-11-03T20:27:59.086Z,83.9
2022-11-03T20:29:15.396Z,83.9
2022-11-03T20:30:31.685Z,84
2022-11-03T20:31:47.980Z,84.2
2022-11-03T20:33:04.265Z,84.3
2022-11-03T20:34:20.556Z,84.4
2022-11-03T20:35:36.845Z,84.5
2022-11-03T20:36:53.154Z,84.5
2022-11-03T20:38:09.453Z,84.8
2022-11-03T20:39:25.739Z,84.9
2022-11-03T20:40:41.052Z,84.9
2022-11-03T20:41:57.344Z,84.9
2022-11-03T20:43:13.632Z,84.9
2022-11-03T20:44:29.920Z,85.1
2022-11-03T20:45:46.219Z,85.2
2022-11-03T20:47:02.513Z,85.3
2022-11-03T20:48:18.806Z,85.3
2022-11-03T20:49:34.121Z,85.5
2022-11-03T20:50:49.427Z,85.8
2022-11-03T20:52:04.754Z,86.1
2022-11-03T20:53:20.058Z,86.3
2022-11-03T20:54:36.364Z,86.2
2022-11-03T20:55:52.641Z,86.1
2022-11-03T20:57:08.952Z,86.1
2022-11-03T20:58:25.232Z,86.1
2022-11-03T20:59:41.522Z,86.1
2022-11-03T21:00:57.821Z,86
2022-11-03T21:02:14.113Z,86.1
2022-11-03T21:03:30.406Z,86.1
2022-11-03T21:04:46.709Z,86.3
2022-11-03T21:06:02.988Z,86.2
2022-11-03T21:07:19.296Z,86.2
2022-11-03T21:08:35.572Z,86.1
2022-11-03T21:09:50.886Z,86.2
2022-11-03T21:11:07.181Z,86.2
2022-11-03T21:12:23.482Z,86.2
2022-11-03T21:13:39.764Z,86.2
2022-11-03T21:14:56.058Z,86.1
2022-11-03T21:16:12.355Z,86.1
2022-11-03T21:17:28.666Z,86
2022-11-03T21:18:43.968Z,86
2022-11-03T21:19:59.280Z,86
2022-11-03T21:21:15.568Z,85.8
2022-11-03T21:22:31.871Z,85.8
2022-11-03T21:23:48.159Z,85.7
2022-11-03T21:25:04.445Z,85.7
2022-11-03T21:26:20.742Z,85.6
2022-11-03T21:27:37.049Z,85.5
2022-11-03T21:28:53.339Z,85.6
2022-11-03T21:30:09.635Z,85.5
2022-11-03T21:31:25.927Z,85.4
2022-11-03T21:32:42.227Z,85.5
2022-11-03T21:33:58.505Z,85.5
2022-11-03T21:35:14.793Z,85.5
2022-11-03T21:36:30.102Z,85.2
2022-11-03T21:37:46.395Z,85.1
2022-11-03T21:39:02.706Z,85.1
2022-11-03T21:40:18.992Z,85
2022-11-03T21:41:35.277Z,85
2022-11-03T21:42:51.571Z,85
2022-11-03T21:44:07.876Z,85
2022-11-03T21:45:23.193Z,85.1
2022-11-03T21:46:38.498Z,85.3
2022-11-03T21:47:53.806Z,85.1
2022-11-03T21:49:09.126Z,85
2022-11-03T21:50:25.413Z,85
2022-11-03T21:51:41.702Z,84.9
2022-11-03T21:52:58.004Z,85
2022-11-03T21:54:14.292Z,85.1
2022-11-03T21:55:30.601Z,85
2022-11-03T21:56:46.876Z,84.9
2022-11-03T21:58:03.176Z,84.9
2022-11-03T21:59:19.476Z,85.1
2022-11-03T22:00:35.763Z,85.5
2022-11-03T22:01:52.058Z,85.7
2022-11-03T22:03:08.361Z,85.8
2022-11-03T22:04:23.670Z,85.7
2022-11-03T22:05:39.959Z,85.9
2022-11-03T22:06:56.267Z,86.2
2022-11-03T22:08:12.559Z,86.2
2022-11-03T22:09:28.854Z,86.3
2022-11-03T22:10:45.143Z,86.4
2022-11-03T22:12:01.424Z,86.7
2022-11-03T22:13:17.715Z,86.7
2022-11-03T22:14:33.029Z,86.9
2022-11-03T22:15:48.340Z,87.1
2022-11-03T22:17:03.660Z,87.2
2022-11-03T22:18:18.980Z,87.3
2022-11-03T22:19:34.287Z,87.3
2022-11-03T22:20:49.601Z,87.4
2022-11-03T22:22:04.914Z,87.4
2022-11-03T22:23:21.220Z,87.5
2022-11-03T22:24:36.516Z,87.7
2022-11-03T22:25:52.816Z,87.9
2022-11-03T22:27:09.104Z,88.3
2022-11-03T22:28:25.399Z,88.3
2022-11-03T22:29:41.693Z,88.1
2022-11-03T22:30:57.979Z,88.1
2022-11-03T22:32:14.281Z,88.1
2022-11-03T22:33:30.572Z,88.2
2022-11-03T22:34:46.868Z,88.2
2022-11-03T22:36:03.174Z,88.3
2022-11-03T22:37:19.452Z,88.3
2022-11-03T22:38:35.737Z,88.3
2022-11-03T22:39:52.037Z,88.5
2022-11-03T22:41:07.348Z,89
2022-11-03T22:42:23.648Z,89
2022-11-03T22:43:39.933Z,89.1
2022-11-03T22:44:56.230Z,89.1
2022-11-03T22:46:12.520Z,89.2
2022-11-03T22:47:28.814Z,89
2022-11-03T22:48:44.145Z,89.3
2022-11-03T22:49:59.454Z,89.2
2022-11-03T22:51:15.740Z,89.4
2022-11-03T22:52:31.048Z,89.5
2022-11-03T22:53:46.359Z,89.7
2022-11-03T22:55:02.656Z,89.5
2022-11-03T22:56:18.942Z,89.4
2022-11-03T22:57:35.241Z,89.3
2022-11-03T22:58:51.553Z,89.5
2022-11-03T23:00:07.828Z,89.9
2022-11-03T23:01:24.135Z,89.9
2022-11-03T23:02:40.418Z,89.9
2022-11-03T23:03:56.708Z,90
2022-11-03T23:05:13.001Z,90
